createdAt,value
2023-05-15T00:01:48.111Z,7.96
2023-05-15T00:04:14.911Z,8.01
2023-05-15T00:06:41.670Z,8.05
2023-05-15T00:09:09.101Z,8.02
2023-05-15T00:11:35.837Z,8.06
2023-05-15T00:14:02.802Z,8.04
2023-05-15T00:16:29.650Z,8.05
2023-05-15T00:18:56.486Z,8.13
2023-05-15T00:21:23.318Z,8.13
2023-05-15T00:23:50.308Z,8.19
2023-05-15T00:26:17.161Z,8.20
2023-05-15T00:28:43.895Z,8.19
2023-05-15T00:31:12.570Z,8.24
2023-05-15T00:33:40.644Z,8.24
2023-05-15T00:36:07.873Z,8.24
2023-05-15T00:38:35.044Z,8.29
2023-05-15T00:41:02.644Z,8.27
2023-05-15T00:43:30.350Z,8.25
2023-05-15T00:45:59.224Z,8.23
2023-05-15T00:48:28.075Z,8.21
2023-05-15T00:50:57.561Z,8.21
2023-05-15T00:53:24.599Z,8.22
2023-05-15T00:55:53.155Z,8.22
2023-05-15T00:58:22.802Z,8.20
2023-05-15T01:00:51.157Z,8.19
2023-05-15T01:03:18.431Z,8.17
2023-05-15T01:05:46.638Z,8.26
2023-05-15T01:08:23.693Z,8.23
2023-05-15T01:10:52.076Z,8.19
2023-05-15T01:13:23.472Z,8.21
2023-05-15T01:15:51.040Z,8.19
2023-05-15T01:18:18.521Z,8.16
2023-05-15T01:20:48.439Z,8.18
2023-05-15T01:23:47.275Z,8.16
2023-05-15T01:26:28.341Z,8.12
2023-05-15T01:29:30.393Z,8.14
2023-05-15T01:32:09.235Z,8.11
2023-05-15T01:38:57.608Z,8.04
2023-05-15T01:41:28.826Z,8.04
2023-05-15T01:44:32.460Z,8.03
2023-05-15T01:47:01.897Z,7.95
2023-05-15T01:49:30.980Z,7.93
2023-05-15T01:52:05.870Z,7.89
2023-05-15T01:54:33.691Z,7.85
2023-05-15T01:57:00.741Z,7.84
2023-05-15T01:59:29.253Z,7.73
2023-05-15T02:02:00.028Z,7.70
2023-05-15T02:04:27.216Z,7.67
2023-05-15T02:06:55.973Z,7.60
2023-05-15T02:09:24.047Z,7.56
2023-05-15T02:11:51.498Z,7.50
2023-05-15T02:14:18.846Z,7.42
2023-05-15T02:16:46.884Z,7.38
2023-05-15T02:19:14.023Z,7.33
2023-05-15T02:21:40.750Z,7.31
2023-05-15T02:24:07.498Z,7.36
2023-05-15T02:26:34.181Z,7.31
2023-05-15T02:29:21.311Z,7.26
2023-05-15T02:32:01.818Z,7.25
2023-05-15T02:34:53.399Z,7.24
2023-05-15T02:37:28.137Z,7.25
2023-05-15T02:40:00.210Z,7.25
2023-05-15T02:42:28.266Z,7.25
2023-05-15T02:44:56.129Z,7.26
2023-05-15T02:47:24.222Z,7.23
2023-05-15T02:49:51.906Z,7.19
2023-05-15T02:52:18.547Z,7.06
2023-05-15T02:54:45.365Z,7.04
2023-05-15T02:57:12.105Z,7.07
2023-05-15T02:59:38.938Z,7.08
2023-05-15T03:02:06.123Z,7.11
2023-05-15T03:04:33.053Z,7.05
2023-05-15T03:06:59.820Z,7.03
2023-05-15T03:09:26.505Z,7.02
2023-05-15T03:11:53.282Z,6.98
2023-05-15T03:14:19.972Z,6.99
2023-05-15T03:16:46.757Z,6.94
2023-05-15T03:19:13.831Z,6.95
2023-05-15T03:21:40.567Z,6.87
2023-05-15T03:24:07.579Z,6.88
2023-05-15T03:26:34.330Z,6.84
2023-05-15T03:29:02.333Z,6.85
2023-05-15T03:31:29.207Z,6.89
2023-05-15T03:33:55.977Z,6.83
2023-05-15T03:36:22.816Z,6.84
2023-05-15T03:38:49.544Z,6.84
2023-05-15T03:41:16.302Z,6.80
2023-05-15T03:43:43.166Z,6.85
2023-05-15T03:46:09.905Z,6.86
2023-05-15T03:48:36.618Z,6.81
2023-05-15T03:51:04.000Z,6.83
2023-05-15T03:53:30.749Z,6.82
2023-05-15T03:55:57.483Z,6.87
2023-05-15T03:58:24.290Z,6.82
2023-05-15T04:00:51.143Z,6.89
2023-05-15T04:03:19.257Z,6.85
2023-05-15T04:05:50.150Z,6.82
2023-05-15T04:08:17.552Z,6.87
2023-05-15T04:10:44.376Z,6.90
2023-05-15T04:13:11.024Z,6.88
2023-05-15T04:15:37.985Z,6.89
2023-05-15T04:18:05.072Z,6.86
2023-05-15T04:20:32.361Z,6.83
2023-05-15T04:22:59.094Z,6.84
2023-05-15T04:25:26.325Z,6.88
2023-05-15T04:27:53.724Z,6.82
2023-05-15T04:30:20.827Z,6.81
2023-05-15T04:32:47.955Z,6.80
2023-05-15T04:35:18.001Z,6.76
2023-05-15T04:37:47.705Z,6.72
2023-05-15T04:40:18.437Z,6.78
2023-05-15T04:42:45.189Z,6.69
2023-05-15T04:45:11.992Z,6.72
2023-05-15T04:47:41.414Z,6.74
2023-05-15T04:50:09.283Z,6.77
2023-05-15T04:52:36.032Z,6.79
2023-05-15T04:55:02.813Z,6.77
2023-05-15T04:57:30.496Z,6.74
2023-05-15T04:59:58.342Z,6.75
2023-05-15T05:02:25.552Z,6.60
2023-05-15T05:04:52.780Z,6.50
2023-05-15T05:07:19.573Z,6.56
2023-05-15T05:09:46.309Z,6.93
2023-05-15T05:12:13.216Z,7.47
2023-05-15T05:14:42.334Z,8.01
2023-05-15T05:17:09.460Z,8.47
2023-05-15T05:19:36.198Z,8.87
2023-05-15T05:22:05.727Z,9.34
2023-05-15T05:24:32.850Z,9.53
2023-05-15T05:27:00.028Z,9.85
2023-05-15T05:29:26.728Z,9.68
2023-05-15T05:31:53.756Z,9.70
2023-05-15T05:34:20.696Z,10.17
2023-05-15T05:36:47.677Z,10.56
2023-05-15T05:39:16.329Z,11.01
2023-05-15T05:41:43.935Z,11.39
2023-05-15T05:44:10.685Z,11.76
2023-05-15T05:46:37.389Z,11.99
2023-05-15T05:49:04.229Z,12.25
2023-05-15T05:51:31.820Z,12.35
2023-05-15T05:53:58.543Z,12.42
2023-05-15T05:56:26.872Z,12.30
2023-05-15T05:58:53.921Z,12.42
2023-05-15T06:01:21.222Z,12.82
2023-05-15T06:03:48.284Z,13.05
2023-05-15T06:06:15.021Z,13.28
2023-05-15T06:08:41.757Z,13.45
2023-05-15T06:11:08.447Z,13.64
2023-05-15T06:13:35.213Z,13.53
2023-05-15T06:16:02.018Z,13.68
2023-05-15T06:18:28.905Z,13.66
2023-05-15T06:20:55.833Z,13.30
2023-05-15T06:23:24.317Z,13.28
2023-05-15T06:25:51.335Z,13.28
2023-05-15T06:28:18.321Z,13.35
2023-05-15T06:30:44.968Z,13.54
2023-05-15T06:33:13.148Z,13.80
2023-05-15T06:35:40.101Z,13.98
2023-05-15T06:38:06.832Z,14.05
2023-05-15T06:40:33.556Z,14.28
2023-05-15T06:43:00.268Z,14.33
2023-05-15T06:45:27.861Z,14.16
2023-05-15T06:47:54.907Z,14.25
2023-05-15T06:50:21.837Z,14.48
2023-05-15T06:52:48.583Z,14.63
2023-05-15T06:55:15.352Z,14.93
2023-05-15T06:57:42.039Z,15.23
2023-05-15T07:00:09.231Z,15.17
2023-05-15T07:02:36.143Z,14.92
2023-05-15T07:05:03.357Z,15.08
2023-05-15T07:07:30.171Z,15.04
2023-05-15T07:09:56.858Z,15.01
2023-05-15T07:12:23.639Z,15.35
2023-05-15T07:14:50.382Z,15.51
2023-05-15T07:17:17.263Z,15.65
2023-05-15T07:19:44.721Z,15.88
2023-05-15T07:22:11.395Z,16.09
2023-05-15T07:24:40.436Z,16.20
2023-05-15T07:27:07.834Z,16.21
2023-05-15T07:29:34.613Z,15.85
2023-05-15T07:32:01.500Z,15.97
2023-05-15T07:34:28.599Z,16.26
2023-05-15T07:37:00.257Z,16.52
2023-05-15T07:39:27.138Z,16.39
2023-05-15T07:41:53.879Z,16.26
2023-05-15T07:44:20.561Z,16.13
2023-05-15T07:46:48.583Z,16.02
2023-05-15T07:49:15.405Z,15.96
2023-05-15T07:51:42.880Z,16.08
2023-05-15T07:54:09.595Z,16.31
2023-05-15T07:56:36.271Z,15.97
2023-05-15T07:59:03.196Z,15.62
2023-05-15T08:01:31.361Z,15.68
2023-05-15T08:03:59.579Z,15.98
2023-05-15T08:06:26.628Z,16.27
2023-05-15T08:08:53.534Z,16.53
2023-05-15T08:11:28.658Z,16.68
2023-05-15T08:13:57.354Z,16.73
2023-05-15T08:16:31.842Z,16.21
2023-05-15T08:19:02.202Z,16.03
2023-05-15T08:21:29.980Z,16.31
2023-05-15T08:24:04.122Z,16.70
2023-05-15T08:26:33.505Z,16.84
2023-05-15T08:29:03.727Z,16.98
2023-05-15T08:31:30.818Z,16.88
2023-05-15T08:33:57.518Z,16.87
2023-05-15T08:36:26.399Z,17.06
2023-05-15T08:38:56.970Z,17.19
2023-05-15T08:41:39.877Z,16.70
2023-05-15T08:44:09.693Z,16.81
2023-05-15T08:46:36.612Z,16.67
2023-05-15T08:49:15.717Z,16.66
2023-05-15T08:51:51.713Z,16.86
2023-05-15T08:54:25.510Z,17.14
2023-05-15T08:56:59.662Z,17.39
2023-05-15T08:59:27.879Z,17.61
2023-05-15T09:01:58.901Z,17.55
2023-05-15T09:04:29.092Z,17.42
2023-05-15T09:07:00.167Z,17.08
2023-05-15T09:17:02.775Z,16.77
2023-05-15T09:23:29.924Z,16.09
2023-05-15T09:26:07.515Z,15.90
2023-05-15T10:16:18.402Z,17.32
2023-05-15T10:29:07.504Z,17.04
2023-05-15T10:47:48.592Z,18.16
2023-05-15T10:50:27.821Z,17.85
2023-05-15T10:57:22.646Z,17.79
2023-05-15T11:00:34.030Z,18.24
2023-05-15T11:10:44.936Z,18.51
2023-05-15T11:13:12.177Z,18.88
2023-05-15T11:15:43.551Z,18.88
2023-05-15T11:18:10.775Z,18.43
2023-05-15T11:20:43.157Z,18.76
2023-05-15T11:23:09.885Z,18.90
2023-05-15T11:25:37.281Z,18.57
2023-05-15T11:28:05.168Z,18.84
2023-05-15T11:30:38.584Z,18.60
2023-05-15T11:33:09.085Z,18.55
2023-05-15T11:35:46.653Z,18.64
2023-05-15T11:38:17.258Z,18.95
2023-05-15T11:40:43.941Z,18.94
2023-05-15T11:43:20.819Z,18.77
2023-05-15T11:46:08.530Z,18.74
2023-05-15T11:48:48.013Z,18.73
2023-05-15T11:51:21.504Z,18.69
2023-05-15T11:53:53.160Z,18.75
2023-05-15T11:56:21.812Z,18.61
2023-05-15T11:58:57.075Z,18.31
2023-05-15T12:01:23.950Z,17.92
2023-05-15T12:03:52.319Z,17.81
2023-05-15T12:06:19.598Z,17.55
2023-05-15T12:08:56.294Z,17.47
2023-05-15T12:11:24.691Z,17.23
2023-05-15T12:13:53.987Z,17.02
2023-05-15T12:16:27.761Z,17.18
2023-05-15T12:18:57.378Z,17.27
2023-05-15T12:21:26.674Z,17.45
2023-05-15T12:24:06.485Z,17.59
2023-05-15T12:26:35.200Z,17.61
2023-05-15T12:29:02.238Z,17.39
2023-05-15T12:31:29.536Z,17.29
2023-05-15T12:33:56.985Z,17.29
2023-05-15T12:36:23.678Z,17.34
2023-05-15T12:38:50.881Z,17.41
2023-05-15T12:41:19.989Z,17.42
2023-05-15T12:43:46.729Z,17.29
2023-05-15T12:46:14.850Z,17.07
2023-05-15T12:48:42.041Z,16.94
2023-05-15T12:51:09.155Z,17.04
2023-05-15T12:53:39.633Z,17.03
2023-05-15T12:56:07.477Z,17.10
2023-05-15T12:58:34.507Z,17.30
2023-05-15T13:01:03.327Z,17.41
2023-05-15T13:03:30.697Z,17.52
2023-05-15T13:05:57.437Z,17.62
2023-05-15T13:08:24.254Z,17.64
2023-05-15T13:10:57.720Z,17.88
2023-05-15T13:13:24.617Z,17.83
2023-05-15T13:15:51.432Z,17.85
2023-05-15T13:18:18.625Z,17.83
2023-05-15T13:20:46.913Z,17.82
2023-05-15T13:23:16.255Z,17.64
2023-05-15T13:25:43.406Z,17.57
2023-05-15T13:28:11.105Z,17.44
2023-05-15T13:30:42.290Z,17.21
2023-05-15T13:33:12.079Z,17.04
2023-05-15T13:35:40.071Z,16.83
2023-05-15T13:38:10.372Z,16.99
2023-05-15T13:40:38.350Z,17.31
2023-05-15T13:43:08.306Z,17.54
2023-05-15T13:45:35.131Z,17.79
2023-05-15T13:48:01.972Z,17.84
2023-05-15T13:50:28.870Z,17.82
2023-05-15T13:52:56.037Z,17.77
2023-05-15T13:55:23.311Z,17.49
2023-05-15T13:57:50.126Z,17.34
2023-05-15T14:00:17.414Z,17.13
2023-05-15T14:02:44.923Z,17.09
2023-05-15T14:05:13.600Z,17.05
2023-05-15T14:07:41.480Z,17.10
2023-05-15T14:10:08.688Z,17.09
2023-05-15T14:12:36.138Z,17.02
2023-05-15T14:15:02.881Z,17.02
2023-05-15T14:17:29.611Z,17.07
2023-05-15T14:19:56.309Z,17.17
2023-05-15T14:22:25.042Z,17.20
2023-05-15T14:24:53.247Z,17.14
2023-05-15T14:27:20.821Z,16.92
2023-05-15T14:29:49.155Z,16.98
2023-05-15T14:32:16.857Z,17.02
2023-05-15T14:34:43.943Z,17.01
2023-05-15T14:37:10.752Z,17.02
2023-05-15T14:39:37.731Z,17.15
2023-05-15T14:42:05.033Z,17.14
2023-05-15T14:44:32.205Z,17.21
2023-05-15T14:47:06.851Z,17.28
2023-05-15T14:49:34.268Z,17.29
2023-05-15T14:52:00.912Z,17.29
2023-05-15T14:54:27.543Z,17.25
2023-05-15T14:56:55.718Z,17.19
2023-05-15T14:59:25.197Z,17.09
2023-05-15T15:01:51.855Z,17.02
2023-05-15T15:04:18.590Z,16.99
2023-05-15T15:06:47.366Z,17.02
2023-05-15T15:09:14.047Z,16.95
2023-05-15T15:11:40.706Z,16.94
2023-05-15T15:14:07.356Z,16.90
2023-05-15T15:16:34.203Z,16.84
2023-05-15T15:19:00.932Z,16.74
2023-05-15T15:21:27.819Z,16.57
2023-05-15T15:23:55.219Z,16.62
2023-05-15T15:26:21.896Z,16.61
2023-05-15T15:28:48.658Z,16.51
2023-05-15T15:31:15.815Z,16.48
2023-05-15T15:33:42.648Z,16.50
2023-05-15T15:36:09.324Z,16.52
2023-05-15T15:38:36.152Z,16.51
2023-05-15T15:41:03.784Z,16.50
2023-05-15T15:43:30.391Z,16.52
2023-05-15T15:45:57.027Z,16.53
2023-05-15T15:48:23.694Z,16.57
2023-05-15T15:50:52.145Z,16.58
2023-05-15T15:53:18.879Z,16.57
2023-05-15T15:55:47.140Z,16.40
2023-05-15T15:58:14.644Z,16.28
2023-05-15T16:00:41.435Z,16.26
2023-05-15T16:03:08.248Z,16.25
2023-05-15T16:05:35.049Z,16.15
2023-05-15T16:08:01.664Z,16.05
2023-05-15T16:10:28.509Z,15.98
2023-05-15T16:12:55.509Z,15.92
2023-05-15T16:15:23.691Z,15.79
2023-05-15T16:17:53.550Z,15.73
2023-05-15T16:20:21.116Z,15.69
2023-05-15T16:22:47.838Z,15.56
2023-05-15T16:25:14.505Z,15.52
2023-05-15T16:27:41.111Z,15.46
2023-05-15T16:30:09.364Z,15.40
2023-05-15T16:32:36.313Z,15.30
2023-05-15T16:35:03.617Z,15.28
2023-05-15T16:37:30.269Z,15.16
2023-05-15T16:39:56.945Z,15.14
2023-05-15T16:42:23.574Z,15.12
2023-05-15T16:44:50.303Z,15.06
2023-05-15T16:47:17.005Z,14.98
2023-05-15T16:49:45.283Z,14.90
2023-05-15T16:52:13.037Z,14.80
2023-05-15T16:54:41.914Z,14.75
2023-05-15T16:57:08.493Z,14.68
2023-05-15T16:59:35.170Z,14.61
2023-05-15T17:02:01.944Z,14.54
2023-05-15T17:04:31.450Z,14.51
2023-05-15T17:06:59.502Z,14.44
2023-05-15T17:09:26.446Z,14.39
2023-05-15T17:11:53.071Z,14.33
2023-05-15T17:14:19.815Z,14.29
2023-05-15T17:16:46.441Z,14.24
2023-05-15T17:19:13.330Z,14.19
2023-05-15T17:21:40.047Z,14.11
2023-05-15T17:24:06.840Z,14.00
2023-05-15T17:26:33.491Z,13.91
2023-05-15T17:29:00.342Z,13.85
2023-05-15T17:31:29.215Z,13.82
2023-05-15T17:33:55.911Z,13.78
2023-05-15T17:36:22.463Z,13.71
2023-05-15T17:38:49.126Z,13.60
2023-05-15T17:41:15.874Z,13.56
2023-05-15T17:43:42.502Z,13.54
2023-05-15T17:46:09.190Z,13.52
2023-05-15T17:48:36.277Z,13.48
2023-05-15T17:51:02.927Z,13.46
2023-05-15T17:53:29.613Z,13.36
2023-05-15T17:55:56.396Z,13.14
2023-05-15T17:58:22.998Z,13.06
2023-05-15T18:00:51.754Z,13.03
2023-05-15T18:03:18.496Z,12.96
2023-05-15T18:05:47.091Z,12.92
2023-05-15T18:08:14.395Z,12.83
2023-05-15T18:10:41.028Z,12.66
2023-05-15T18:13:07.816Z,12.57
2023-05-15T18:15:35.398Z,12.44
2023-05-15T18:18:02.760Z,12.34
2023-05-15T18:20:29.907Z,12.24
2023-05-15T18:22:56.603Z,12.17
2023-05-15T18:25:23.310Z,12.10
2023-05-15T18:27:50.016Z,12.05
2023-05-15T18:30:16.756Z,12.01
2023-05-15T18:32:43.518Z,11.95
2023-05-15T18:35:10.851Z,11.88
2023-05-15T18:37:37.526Z,11.77
2023-05-15T18:40:05.378Z,11.67
2023-05-15T18:42:32.053Z,11.60
2023-05-15T18:44:58.721Z,11.52
2023-05-15T18:47:25.441Z,11.46
2023-05-15T18:49:52.103Z,11.39
2023-05-15T18:52:19.029Z,11.34
2023-05-15T18:54:45.675Z,11.26
2023-05-15T18:57:14.357Z,11.16
2023-05-15T18:59:41.830Z,11.09
2023-05-15T19:02:09.741Z,11.04
2023-05-15T19:04:36.690Z,11.01
2023-05-15T19:07:03.381Z,10.95
2023-05-15T19:09:30.075Z,10.91
2023-05-15T19:11:56.816Z,10.87
2023-05-15T19:14:23.469Z,10.82
2023-05-15T19:16:50.171Z,10.82
2023-05-15T19:19:18.209Z,10.78
2023-05-15T19:21:44.995Z,10.73
2023-05-15T19:24:11.674Z,10.71
2023-05-15T19:26:38.323Z,10.68
2023-05-15T19:29:05.106Z,10.63
2023-05-15T19:31:32.544Z,10.58
2023-05-15T19:34:00.285Z,10.57
2023-05-15T19:36:27.208Z,10.52
2023-05-15T19:38:53.857Z,10.50
2023-05-15T19:41:21.673Z,10.49
2023-05-15T19:43:50.772Z,10.46
2023-05-15T19:46:18.168Z,10.42
2023-05-15T19:48:45.110Z,10.40
2023-05-15T19:51:12.165Z,10.29
2023-05-15T19:53:38.808Z,10.23
2023-05-15T19:56:05.988Z,10.19
2023-05-15T19:58:32.792Z,10.16
2023-05-15T20:00:59.431Z,10.08
2023-05-15T20:03:32.673Z,10.06
2023-05-15T20:06:01.679Z,10.00
2023-05-15T20:08:29.059Z,10.01
2023-05-15T20:10:56.105Z,9.95
2023-05-15T20:13:23.355Z,9.88
2023-05-15T20:15:58.059Z,9.71
2023-05-15T20:18:25.944Z,9.64
2023-05-15T20:20:55.847Z,9.64
2023-05-15T20:23:22.579Z,9.59
2023-05-15T20:25:50.369Z,9.57
2023-05-15T20:28:17.892Z,9.57
2023-05-15T20:30:47.479Z,9.60
2023-05-15T20:33:14.441Z,9.60
2023-05-15T20:35:42.827Z,9.60
2023-05-15T20:38:10.589Z,9.59
2023-05-15T20:40:37.718Z,9.59
2023-05-15T20:43:04.791Z,9.59
2023-05-15T20:45:32.443Z,9.57
2023-05-15T20:47:59.397Z,9.52
2023-05-15T20:50:26.642Z,9.51
2023-05-15T20:52:53.571Z,9.51
2023-05-15T20:55:21.700Z,9.51
2023-05-15T20:57:50.380Z,9.49
2023-05-15T21:00:18.170Z,9.44
2023-05-15T21:02:46.558Z,9.41
2023-05-15T21:05:13.648Z,9.39
2023-05-15T21:07:40.629Z,9.39
2023-05-15T21:10:07.986Z,9.30
2023-05-15T21:12:34.730Z,9.24
2023-05-15T21:15:02.456Z,9.23
2023-05-15T21:17:29.106Z,9.23
2023-05-15T21:19:57.687Z,9.24
2023-05-15T21:22:24.904Z,9.21
2023-05-15T21:24:51.844Z,9.21
2023-05-15T21:27:18.598Z,9.17
2023-05-15T21:29:45.230Z,9.14
2023-05-15T21:32:11.968Z,9.14
2023-05-15T21:34:39.356Z,9.11
2023-05-15T21:37:06.051Z,9.08
2023-05-15T21:39:32.685Z,9.06
2023-05-15T21:41:59.301Z,9.05
2023-05-15T21:44:26.006Z,9.04
2023-05-15T21:46:52.813Z,9.00
2023-05-15T21:49:19.536Z,8.85
2023-05-15T21:51:46.759Z,8.76
2023-05-15T21:54:13.502Z,8.68
2023-05-15T21:56:41.237Z,8.57
2023-05-15T21:59:08.212Z,8.55
2023-05-15T22:01:36.297Z,8.59
2023-05-15T22:04:03.161Z,8.63
2023-05-15T22:06:29.955Z,8.71
2023-05-15T22:08:57.581Z,8.77
2023-05-15T22:11:24.310Z,8.74
2023-05-15T22:13:51.116Z,8.75
2023-05-15T22:16:17.788Z,8.80
2023-05-15T22:18:45.045Z,8.82
2023-05-15T22:21:12.085Z,8.87
2023-05-15T22:23:38.707Z,8.93
2023-05-15T22:26:05.692Z,8.94
2023-05-15T22:28:32.317Z,8.91
2023-05-15T22:30:58.984Z,8.93
2023-05-15T22:33:25.797Z,8.96
2023-05-15T22:35:53.263Z,8.98
2023-05-15T22:38:20.560Z,9.01
2023-05-15T22:40:54.033Z,9.02
2023-05-15T22:43:22.574Z,9.04
2023-05-15T22:45:49.393Z,9.06
2023-05-15T22:48:16.060Z,9.07
2023-05-15T22:50:44.017Z,9.09
2023-05-15T22:53:10.710Z,9.12
2023-05-15T22:55:37.438Z,9.14
2023-05-15T22:58:04.178Z,9.16
2023-05-15T23:00:31.362Z,9.17
2023-05-15T23:02:58.182Z,9.21
2023-05-15T23:05:25.473Z,9.20
2023-05-15T23:07:52.997Z,9.17
2023-05-15T23:10:19.778Z,9.16
2023-05-15T23:12:46.802Z,9.15
2023-05-15T23:15:13.573Z,9.09
2023-05-15T23:17:40.560Z,9.10
2023-05-15T23:20:10.590Z,9.09
2023-05-15T23:22:37.340Z,9.08
2023-05-15T23:25:04.262Z,9.09
2023-05-15T23:27:30.935Z,9.10
2023-05-15T23:29:57.592Z,9.09
2023-05-15T23:32:24.361Z,9.09
2023-05-15T23:34:52.048Z,9.12
2023-05-15T23:37:18.943Z,9.10
2023-05-15T23:39:45.663Z,9.11
2023-05-15T23:42:12.567Z,9.12
2023-05-15T23:44:39.279Z,9.11
2023-05-15T23:47:06.656Z,9.07
2023-05-15T23:49:33.687Z,9.06
2023-05-15T23:52:00.660Z,9.08
2023-05-15T23:54:27.949Z,9.08
2023-05-15T23:56:54.846Z,9.07
2023-05-15T23:59:21.619Z,9.09
